sensor_id;sensor_type;location;lat;lon;timestamp;P1;durP1;ratioP1;P2;durP2;ratioP2
66437;SDS011;54537;47.972;11.662;2023-06-22T00:00:40;15.60;;;5.45;;
66437;SDS011;54537;47.972;11.662;2023-06-22T00:03:07;14.27;;;5.32;;
66437;SDS011;54537;47.972;11.662;2023-06-22T00:05:34;16.50;;;5.30;;
66437;SDS011;54537;47.972;11.662;2023-06-22T00:08:02;15.85;;;5.25;;
66437;SDS011;54537;47.972;11.662;2023-06-22T00:10:29;17.67;;;5.57;;
66437;SDS011;54537;47.972;11.662;2023-06-22T00:12:55;14.65;;;5.78;;
66437;SDS011;54537;47.972;11.662;2023-06-22T00:15:23;13.35;;;5.20;;
66437;SDS011;54537;47.972;11.662;2023-06-22T00:17:50;16.58;;;5.20;;
66437;SDS011;54537;47.972;11.662;2023-06-22T00:20:17;12.88;;;5.15;;
66437;SDS011;54537;47.972;11.662;2023-06-22T00:22:44;17.63;;;5.13;;
66437;SDS011;54537;47.972;11.662;2023-06-22T00:25:11;14.30;;;5.50;;
66437;SDS011;54537;47.972;11.662;2023-06-22T00:27:38;15.30;;;6.03;;
66437;SDS011;54537;47.972;11.662;2023-06-22T00:30:04;15.88;;;5.82;;
66437;SDS011;54537;47.972;11.662;2023-06-22T00:32:33;13.52;;;5.60;;
66437;SDS011;54537;47.972;11.662;2023-06-22T00:34:59;18.13;;;5.53;;
66437;SDS011;54537;47.972;11.662;2023-06-22T00:37:26;14.07;;;6.03;;
66437;SDS011;54537;47.972;11.662;2023-06-22T00:39:54;14.70;;;6.07;;
66437;SDS011;54537;47.972;11.662;2023-06-22T00:42:21;15.27;;;5.80;;
66437;SDS011;54537;47.972;11.662;2023-06-22T00:44:48;18.30;;;6.20;;
66437;SDS011;54537;47.972;11.662;2023-06-22T00:47:15;17.23;;;7.00;;
66437;SDS011;54537;47.972;11.662;2023-06-22T00:49:43;18.23;;;6.15;;
66437;SDS011;54537;47.972;11.662;2023-06-22T00:52:11;16.88;;;7.07;;
66437;SDS011;54537;47.972;11.662;2023-06-22T00:54:45;16.98;;;6.70;;
66437;SDS011;54537;47.972;11.662;2023-06-22T00:57:14;21.67;;;6.82;;
66437;SDS011;54537;47.972;11.662;2023-06-22T00:59:41;16.40;;;6.68;;
66437;SDS011;54537;47.972;11.662;2023-06-22T01:02:08;18.80;;;6.93;;
66437;SDS011;54537;47.972;11.662;2023-06-22T01:04:35;18.48;;;7.38;;
66437;SDS011;54537;47.972;11.662;2023-06-22T01:07:07;17.70;;;7.20;;
66437;SDS011;54537;47.972;11.662;2023-06-22T01:09:39;17.08;;;7.88;;
66437;SDS011;54537;47.972;11.662;2023-06-22T01:12:09;20.25;;;7.97;;
66437;SDS011;54537;47.972;11.662;2023-06-22T01:14:37;17.55;;;7.20;;
66437;SDS011;54537;47.972;11.662;2023-06-22T01:17:08;20.33;;;7.85;;
66437;SDS011;54537;47.972;11.662;2023-06-22T01:19:35;25.48;;;7.70;;
66437;SDS011;54537;47.972;11.662;2023-06-22T01:22:46;18.33;;;7.60;;
66437;SDS011;54537;47.972;11.662;2023-06-22T01:25:26;19.60;;;7.47;;
66437;SDS011;54537;47.972;11.662;2023-06-22T01:27:58;20.52;;;7.70;;
66437;SDS011;54537;47.972;11.662;2023-06-22T01:30:32;20.38;;;7.85;;
66437;SDS011;54537;47.972;11.662;2023-06-22T01:33:01;25.33;;;8.30;;
66437;SDS011;54537;47.972;11.662;2023-06-22T01:35:29;19.40;;;8.10;;
66437;SDS011;54537;47.972;11.662;2023-06-22T01:37:56;21.75;;;7.90;;
66437;SDS011;54537;47.972;11.662;2023-06-22T01:40:22;22.73;;;8.02;;
66437;SDS011;54537;47.972;11.662;2023-06-22T01:42:49;23.35;;;8.38;;
66437;SDS011;54537;47.972;11.662;2023-06-22T01:45:16;22.20;;;7.30;;
66437;SDS011;54537;47.972;11.662;2023-06-22T01:47:45;22.17;;;8.40;;
66437;SDS011;54537;47.972;11.662;2023-06-22T01:50:11;20.65;;;7.57;;
66437;SDS011;54537;47.972;11.662;2023-06-22T01:52:38;20.67;;;7.65;;
66437;SDS011;54537;47.972;11.662;2023-06-22T01:55:05;18.15;;;6.90;;
66437;SDS011;54537;47.972;11.662;2023-06-22T01:57:33;18.30;;;7.93;;
66437;SDS011;54537;47.972;11.662;2023-06-22T02:00:00;19.27;;;6.95;;
66437;SDS011;54537;47.972;11.662;2023-06-22T02:02:29;17.17;;;7.28;;
66437;SDS011;54537;47.972;11.662;2023-06-22T02:05:03;21.85;;;7.38;;
66437;SDS011;54537;47.972;11.662;2023-06-22T02:07:34;18.05;;;7.07;;
66437;SDS011;54537;47.972;11.662;2023-06-22T02:10:06;22.38;;;7.47;;
66437;SDS011;54537;47.972;11.662;2023-06-22T02:12:34;24.42;;;6.45;;
66437;SDS011;54537;47.972;11.662;2023-06-22T02:15:00;21.80;;;7.55;;
66437;SDS011;54537;47.972;11.662;2023-06-22T02:17:27;17.80;;;6.38;;
66437;SDS011;54537;47.972;11.662;2023-06-22T02:19:58;15.20;;;6.40;;
66437;SDS011;54537;47.972;11.662;2023-06-22T02:22:25;19.50;;;6.93;;
66437;SDS011;54537;47.972;11.662;2023-06-22T02:24:52;19.08;;;6.80;;
66437;SDS011;54537;47.972;11.662;2023-06-22T02:27:19;13.82;;;6.03;;
66437;SDS011;54537;47.972;11.662;2023-06-22T02:29:45;17.77;;;6.32;;
66437;SDS011;54537;47.972;11.662;2023-06-22T02:32:12;17.45;;;6.18;;
66437;SDS011;54537;47.972;11.662;2023-06-22T02:34:38;16.60;;;6.35;;
66437;SDS011;54537;47.972;11.662;2023-06-22T02:37:04;15.23;;;6.38;;
66437;SDS011;54537;47.972;11.662;2023-06-22T02:39:32;13.55;;;6.18;;
66437;SDS011;54537;47.972;11.662;2023-06-22T02:41:59;15.15;;;5.82;;
66437;SDS011;54537;47.972;11.662;2023-06-22T02:44:26;13.88;;;5.75;;
66437;SDS011;54537;47.972;11.662;2023-06-22T02:46:52;16.17;;;6.22;;
66437;SDS011;54537;47.972;11.662;2023-06-22T02:49:19;14.68;;;5.93;;
66437;SDS011;54537;47.972;11.662;2023-06-22T02:51:46;16.00;;;6.28;;
66437;SDS011;54537;47.972;11.662;2023-06-22T02:54:13;19.42;;;6.60;;
66437;SDS011;54537;47.972;11.662;2023-06-22T02:56:41;19.80;;;6.93;;
66437;SDS011;54537;47.972;11.662;2023-06-22T02:59:08;17.98;;;7.32;;
66437;SDS011;54537;47.972;11.662;2023-06-22T03:01:35;14.55;;;5.75;;
66437;SDS011;54537;47.972;11.662;2023-06-22T03:04:05;13.90;;;6.40;;
66437;SDS011;54537;47.972;11.662;2023-06-22T03:06:32;15.05;;;6.45;;
66437;SDS011;54537;47.972;11.662;2023-06-22T03:08:59;14.38;;;6.13;;
66437;SDS011;54537;47.972;11.662;2023-06-22T03:11:25;19.42;;;7.22;;
66437;SDS011;54537;47.972;11.662;2023-06-22T03:13:53;17.67;;;6.78;;
66437;SDS011;54537;47.972;11.662;2023-06-22T03:16:20;16.75;;;5.80;;
66437;SDS011;54537;47.972;11.662;2023-06-22T03:18:46;21.08;;;6.85;;
66437;SDS011;54537;47.972;11.662;2023-06-22T03:21:13;21.50;;;6.53;;
66437;SDS011;54537;47.972;11.662;2023-06-22T03:23:40;14.05;;;6.32;;
66437;SDS011;54537;47.972;11.662;2023-06-22T03:26:08;16.77;;;6.35;;
66437;SDS011;54537;47.972;11.662;2023-06-22T03:28:34;17.60;;;6.28;;
66437;SDS011;54537;47.972;11.662;2023-06-22T03:31:02;15.55;;;6.28;;
66437;SDS011;54537;47.972;11.662;2023-06-22T03:33:29;14.32;;;6.65;;
66437;SDS011;54537;47.972;11.662;2023-06-22T03:35:56;15.02;;;6.32;;
66437;SDS011;54537;47.972;11.662;2023-06-22T03:38:22;15.30;;;6.00;;
66437;SDS011;54537;47.972;11.662;2023-06-22T03:40:48;16.63;;;6.63;;
66437;SDS011;54537;47.972;11.662;2023-06-22T03:43:15;15.43;;;6.43;;
66437;SDS011;54537;47.972;11.662;2023-06-22T03:45:41;17.00;;;6.47;;
66437;SDS011;54537;47.972;11.662;2023-06-22T03:48:11;16.98;;;7.10;;
66437;SDS011;54537;47.972;11.662;2023-06-22T03:50:38;13.68;;;6.43;;
66437;SDS011;54537;47.972;11.662;2023-06-22T03:53:04;17.58;;;6.65;;
66437;SDS011;54537;47.972;11.662;2023-06-22T03:55:31;17.83;;;7.88;;
66437;SDS011;54537;47.972;11.662;2023-06-22T03:57:57;21.00;;;6.20;;
66437;SDS011;54537;47.972;11.662;2023-06-22T04:00:30;16.02;;;6.65;;
66437;SDS011;54537;47.972;11.662;2023-06-22T04:02:57;14.27;;;6.30;;
66437;SDS011;54537;47.972;11.662;2023-06-22T04:05:25;21.08;;;7.55;;
66437;SDS011;54537;47.972;11.662;2023-06-22T04:07:51;13.95;;;6.32;;
66437;SDS011;54537;47.972;11.662;2023-06-22T04:10:17;15.43;;;6.38;;
66437;SDS011;54537;47.972;11.662;2023-06-22T04:12:44;18.88;;;6.90;;
66437;SDS011;54537;47.972;11.662;2023-06-22T04:15:10;18.17;;;6.88;;
66437;SDS011;54537;47.972;11.662;2023-06-22T04:17:37;16.23;;;6.82;;
66437;SDS011;54537;47.972;11.662;2023-06-22T04:20:04;15.88;;;6.68;;
66437;SDS011;54537;47.972;11.662;2023-06-22T04:22:33;18.25;;;6.40;;
66437;SDS011;54537;47.972;11.662;2023-06-22T04:25:00;20.05;;;6.13;;
66437;SDS011;54537;47.972;11.662;2023-06-22T04:27:26;16.00;;;6.35;;
66437;SDS011;54537;47.972;11.662;2023-06-22T04:29:52;17.52;;;6.53;;
66437;SDS011;54537;47.972;11.662;2023-06-22T04:32:19;20.00;;;6.22;;
66437;SDS011;54537;47.972;11.662;2023-06-22T04:34:45;14.32;;;6.47;;
66437;SDS011;54537;47.972;11.662;2023-06-22T04:37:12;16.45;;;6.35;;
66437;SDS011;54537;47.972;11.662;2023-06-22T04:39:42;17.83;;;6.82;;
66437;SDS011;54537;47.972;11.662;2023-06-22T04:42:08;17.92;;;6.30;;
66437;SDS011;54537;47.972;11.662;2023-06-22T04:44:35;14.82;;;6.32;;
66437;SDS011;54537;47.972;11.662;2023-06-22T04:47:01;12.60;;;5.30;;
66437;SDS011;54537;47.972;11.662;2023-06-22T04:49:31;15.93;;;5.82;;
66437;SDS011;54537;47.972;11.662;2023-06-22T04:51:59;11.93;;;5.68;;
66437;SDS011;54537;47.972;11.662;2023-06-22T04:54:26;18.08;;;6.28;;
66437;SDS011;54537;47.972;11.662;2023-06-22T04:56:54;15.77;;;6.57;;
66437;SDS011;54537;47.972;11.662;2023-06-22T04:59:22;15.15;;;7.03;;
66437;SDS011;54537;47.972;11.662;2023-06-22T05:01:53;16.50;;;6.45;;
66437;SDS011;54537;47.972;11.662;2023-06-22T05:04:19;15.23;;;6.47;;
66437;SDS011;54537;47.972;11.662;2023-06-22T05:06:46;15.80;;;6.05;;
66437;SDS011;54537;47.972;11.662;2023-06-22T05:09:13;17.60;;;6.63;;
66437;SDS011;54537;47.972;11.662;2023-06-22T05:11:40;17.50;;;6.45;;
66437;SDS011;54537;47.972;11.662;2023-06-22T05:14:08;15.75;;;6.72;;
66437;SDS011;54537;47.972;11.662;2023-06-22T05:16:35;16.20;;;6.40;;
66437;SDS011;54537;47.972;11.662;2023-06-22T05:19:02;16.60;;;6.82;;
66437;SDS011;54537;47.972;11.662;2023-06-22T05:21:29;15.93;;;7.05;;
66437;SDS011;54537;47.972;11.662;2023-06-22T05:23:56;20.92;;;7.40;;
66437;SDS011;54537;47.972;11.662;2023-06-22T05:26:25;16.63;;;6.68;;
66437;SDS011;54537;47.972;11.662;2023-06-22T05:28:52;13.98;;;6.93;;
66437;SDS011;54537;47.972;11.662;2023-06-22T05:31:20;17.02;;;7.00;;
66437;SDS011;54537;47.972;11.662;2023-06-22T05:33:47;16.88;;;6.90;;
66437;SDS011;54537;47.972;11.662;2023-06-22T05:36:14;15.07;;;7.20;;
66437;SDS011;54537;47.972;11.662;2023-06-22T05:38:41;16.20;;;7.03;;
66437;SDS011;54537;47.972;11.662;2023-06-22T05:41:07;15.25;;;6.57;;
66437;SDS011;54537;47.972;11.662;2023-06-22T05:43:34;15.63;;;6.78;;
66437;SDS011;54537;47.972;11.662;2023-06-22T05:46:01;19.63;;;6.57;;
66437;SDS011;54537;47.972;11.662;2023-06-22T05:48:29;15.93;;;6.75;;
66437;SDS011;54537;47.972;11.662;2023-06-22T05:50:55;14.43;;;6.60;;
66437;SDS011;54537;47.972;11.662;2023-06-22T05:53:22;17.77;;;6.28;;
66437;SDS011;54537;47.972;11.662;2023-06-22T05:55:48;15.55;;;6.47;;
66437;SDS011;54537;47.972;11.662;2023-06-22T05:58:15;17.42;;;7.05;;
66437;SDS011;54537;47.972;11.662;2023-06-22T06:00:41;16.55;;;6.68;;
66437;SDS011;54537;47.972;11.662;2023-06-22T06:03:08;15.18;;;6.65;;
66437;SDS011;54537;47.972;11.662;2023-06-22T06:05:37;13.27;;;5.88;;
66437;SDS011;54537;47.972;11.662;2023-06-22T06:08:05;18.27;;;6.65;;
66437;SDS011;54537;47.972;11.662;2023-06-22T06:10:32;18.23;;;6.45;;
66437;SDS011;54537;47.972;11.662;2023-06-22T06:12:58;18.90;;;6.72;;
66437;SDS011;54537;47.972;11.662;2023-06-22T06:15:27;16.02;;;6.50;;
66437;SDS011;54537;47.972;11.662;2023-06-22T06:17:53;16.63;;;6.80;;
66437;SDS011;54537;47.972;11.662;2023-06-22T06:20:20;15.40;;;6.70;;
66437;SDS011;54537;47.972;11.662;2023-06-22T06:22:49;18.92;;;6.68;;
66437;SDS011;54537;47.972;11.662;2023-06-22T06:25:16;17.02;;;6.32;;
66437;SDS011;54537;47.972;11.662;2023-06-22T06:27:45;16.38;;;6.70;;
66437;SDS011;54537;47.972;11.662;2023-06-22T06:30:12;17.67;;;6.25;;
66437;SDS011;54537;47.972;11.662;2023-06-22T06:32:40;17.80;;;6.55;;
66437;SDS011;54537;47.972;11.662;2023-06-22T06:35:07;16.20;;;6.32;;
66437;SDS011;54537;47.972;11.662;2023-06-22T06:37:34;17.27;;;6.80;;
66437;SDS011;54537;47.972;11.662;2023-06-22T06:40:04;16.15;;;6.57;;
66437;SDS011;54537;47.972;11.662;2023-06-22T06:42:33;13.55;;;6.20;;
66437;SDS011;54537;47.972;11.662;2023-06-22T06:44:59;20.20;;;6.60;;
66437;SDS011;54537;47.972;11.662;2023-06-22T06:47:26;16.67;;;6.03;;
66437;SDS011;54537;47.972;11.662;2023-06-22T06:49:52;13.85;;;5.78;;
66437;SDS011;54537;47.972;11.662;2023-06-22T06:52:18;11.40;;;5.65;;
66437;SDS011;54537;47.972;11.662;2023-06-22T06:54:45;16.92;;;6.60;;
66437;SDS011;54537;47.972;11.662;2023-06-22T06:57:13;13.73;;;6.13;;
66437;SDS011;54537;47.972;11.662;2023-06-22T06:59:40;13.98;;;6.20;;
66437;SDS011;54537;47.972;11.662;2023-06-22T07:02:07;18.02;;;6.28;;
66437;SDS011;54537;47.972;11.662;2023-06-22T07:04:33;18.50;;;6.70;;
66437;SDS011;54537;47.972;11.662;2023-06-22T07:07:00;16.23;;;6.50;;
66437;SDS011;54537;47.972;11.662;2023-06-22T07:09:28;18.38;;;6.95;;
66437;SDS011;54537;47.972;11.662;2023-06-22T07:11:54;15.50;;;6.50;;
66437;SDS011;54537;47.972;11.662;2023-06-22T07:14:22;15.60;;;6.05;;
66437;SDS011;54537;47.972;11.662;2023-06-22T07:16:49;14.32;;;6.82;;
66437;SDS011;54537;47.972;11.662;2023-06-22T07:19:15;14.02;;;5.72;;
66437;SDS011;54537;47.972;11.662;2023-06-22T07:21:42;16.30;;;6.63;;
66437;SDS011;54537;47.972;11.662;2023-06-22T07:24:08;15.38;;;6.13;;
66437;SDS011;54537;47.972;11.662;2023-06-22T07:26:35;15.40;;;6.60;;
66437;SDS011;54537;47.972;11.662;2023-06-22T07:29:01;15.48;;;6.53;;
66437;SDS011;54537;47.972;11.662;2023-06-22T07:31:30;17.75;;;6.03;;
66437;SDS011;54537;47.972;11.662;2023-06-22T07:33:57;17.25;;;6.18;;
66437;SDS011;54537;47.972;11.662;2023-06-22T07:36:23;13.45;;;5.95;;
66437;SDS011;54537;47.972;11.662;2023-06-22T07:38:50;17.30;;;6.15;;
66437;SDS011;54537;47.972;11.662;2023-06-22T07:41:16;18.05;;;5.55;;
66437;SDS011;54537;47.972;11.662;2023-06-22T07:43:44;15.82;;;5.55;;
66437;SDS011;54537;47.972;11.662;2023-06-22T07:46:11;18.80;;;6.28;;
66437;SDS011;54537;47.972;11.662;2023-06-22T07:48:38;13.90;;;5.82;;
66437;SDS011;54537;47.972;11.662;2023-06-22T07:51:06;14.75;;;6.07;;
66437;SDS011;54537;47.972;11.662;2023-06-22T07:53:33;13.80;;;5.88;;
66437;SDS011;54537;47.972;11.662;2023-06-22T07:56:01;17.23;;;6.65;;
66437;SDS011;54537;47.972;11.662;2023-06-22T07:58:32;20.83;;;6.38;;
66437;SDS011;54537;47.972;11.662;2023-06-22T08:00:58;15.32;;;6.15;;
66437;SDS011;54537;47.972;11.662;2023-06-22T08:03:25;18.15;;;6.38;;
66437;SDS011;54537;47.972;11.662;2023-06-22T08:05:53;16.30;;;5.90;;
66437;SDS011;54537;47.972;11.662;2023-06-22T08:08:19;12.57;;;6.32;;
66437;SDS011;54537;47.972;11.662;2023-06-22T08:10:45;15.43;;;6.00;;
66437;SDS011;54537;47.972;11.662;2023-06-22T08:13:12;16.08;;;6.22;;
66437;SDS011;54537;47.972;11.662;2023-06-22T08:15:38;20.25;;;6.38;;
66437;SDS011;54537;47.972;11.662;2023-06-22T08:18:05;18.02;;;6.53;;
66437;SDS011;54537;47.972;11.662;2023-06-22T08:20:31;15.68;;;6.78;;
66437;SDS011;54537;47.972;11.662;2023-06-22T08:22:59;22.63;;;6.90;;
66437;SDS011;54537;47.972;11.662;2023-06-22T08:25:31;15.13;;;6.43;;
66437;SDS011;54537;47.972;11.662;2023-06-22T08:27:57;15.95;;;6.32;;
66437;SDS011;54537;47.972;11.662;2023-06-22T08:30:24;18.10;;;6.65;;
66437;SDS011;54537;47.972;11.662;2023-06-22T08:32:50;18.85;;;6.10;;
66437;SDS011;54537;47.972;11.662;2023-06-22T08:35:17;20.58;;;6.35;;
66437;SDS011;54537;47.972;11.662;2023-06-22T08:37:43;16.90;;;6.38;;
66437;SDS011;54537;47.972;11.662;2023-06-22T08:40:19;15.27;;;6.10;;
66437;SDS011;54537;47.972;11.662;2023-06-22T08:42:46;19.25;;;6.65;;
66437;SDS011;54537;47.972;11.662;2023-06-22T08:45:13;15.02;;;5.85;;
66437;SDS011;54537;47.972;11.662;2023-06-22T08:47:40;20.38;;;6.88;;
66437;SDS011;54537;47.972;11.662;2023-06-22T08:50:08;19.50;;;6.22;;
66437;SDS011;54537;47.972;11.662;2023-06-22T08:52:35;14.18;;;5.80;;
66437;SDS011;54537;47.972;11.662;2023-06-22T08:55:02;19.38;;;6.75;;
66437;SDS011;54537;47.972;11.662;2023-06-22T08:57:30;15.48;;;6.57;;
66437;SDS011;54537;47.972;11.662;2023-06-22T08:59:57;15.65;;;6.43;;
66437;SDS011;54537;47.972;11.662;2023-06-22T09:02:24;15.85;;;6.85;;
66437;SDS011;54537;47.972;11.662;2023-06-22T09:04:51;19.85;;;6.75;;
66437;SDS011;54537;47.972;11.662;2023-06-22T09:07:21;19.33;;;6.53;;
66437;SDS011;54537;47.972;11.662;2023-06-22T09:09:48;15.57;;;6.57;;
66437;SDS011;54537;47.972;11.662;2023-06-22T09:12:15;16.98;;;6.15;;
66437;SDS011;54537;47.972;11.662;2023-06-22T09:14:43;23.38;;;6.63;;
66437;SDS011;54537;47.972;11.662;2023-06-22T09:17:09;14.13;;;5.97;;
66437;SDS011;54537;47.972;11.662;2023-06-22T09:19:36;15.35;;;5.78;;
66437;SDS011;54537;47.972;11.662;2023-06-22T09:22:03;20.98;;;6.65;;
66437;SDS011;54537;47.972;11.662;2023-06-22T09:24:31;21.67;;;5.72;;
66437;SDS011;54537;47.972;11.662;2023-06-22T09:26:57;14.52;;;5.72;;
66437;SDS011;54537;47.972;11.662;2023-06-22T09:29:24;15.65;;;5.80;;
66437;SDS011;54537;47.972;11.662;2023-06-22T09:31:51;15.75;;;5.82;;
66437;SDS011;54537;47.972;11.662;2023-06-22T09:34:19;20.35;;;6.03;;
66437;SDS011;54537;47.972;11.662;2023-06-22T09:36:45;18.83;;;6.30;;
66437;SDS011;54537;47.972;11.662;2023-06-22T09:39:12;18.20;;;6.00;;
66437;SDS011;54537;47.972;11.662;2023-06-22T09:41:39;15.88;;;6.13;;
66437;SDS011;54537;47.972;11.662;2023-06-22T09:44:06;12.93;;;5.82;;
66437;SDS011;54537;47.972;11.662;2023-06-22T09:46:32;21.52;;;6.68;;
66437;SDS011;54537;47.972;11.662;2023-06-22T09:49:00;16.88;;;6.50;;
66437;SDS011;54537;47.972;11.662;2023-06-22T09:51:27;14.27;;;5.68;;
66437;SDS011;54537;47.972;11.662;2023-06-22T09:53:53;20.38;;;6.78;;
66437;SDS011;54537;47.972;11.662;2023-06-22T09:56:20;17.50;;;6.30;;
66437;SDS011;54537;47.972;11.662;2023-06-22T09:58:46;15.88;;;6.68;;
66437;SDS011;54537;47.972;11.662;2023-06-22T10:01:15;16.02;;;5.85;;
66437;SDS011;54537;47.972;11.662;2023-06-22T10:03:42;17.23;;;6.00;;
66437;SDS011;54537;47.972;11.662;2023-06-22T10:06:09;14.13;;;6.00;;
66437;SDS011;54537;47.972;11.662;2023-06-22T10:08:36;15.85;;;5.40;;
66437;SDS011;54537;47.972;11.662;2023-06-22T10:11:03;17.95;;;6.20;;
66437;SDS011;54537;47.972;11.662;2023-06-22T10:13:30;21.13;;;6.65;;
66437;SDS011;54537;47.972;11.662;2023-06-22T10:15:56;17.67;;;5.95;;
66437;SDS011;54537;47.972;11.662;2023-06-22T10:18:23;15.38;;;6.43;;
66437;SDS011;54537;47.972;11.662;2023-06-22T10:20:50;16.10;;;6.63;;
66437;SDS011;54537;47.972;11.662;2023-06-22T10:23:18;16.30;;;6.38;;
66437;SDS011;54537;47.972;11.662;2023-06-22T10:25:45;18.38;;;6.85;;
66437;SDS011;54537;47.972;11.662;2023-06-22T10:28:12;20.58;;;5.90;;
66437;SDS011;54537;47.972;11.662;2023-06-22T10:30:38;15.52;;;5.75;;
66437;SDS011;54537;47.972;11.662;2023-06-22T10:33:06;15.75;;;5.55;;
66437;SDS011;54537;47.972;11.662;2023-06-22T10:35:32;20.60;;;5.85;;
66437;SDS011;54537;47.972;11.662;2023-06-22T10:37:59;19.92;;;5.72;;
66437;SDS011;54537;47.972;11.662;2023-06-22T10:40:27;18.52;;;5.93;;
66437;SDS011;54537;47.972;11.662;2023-06-22T10:42:53;16.05;;;5.75;;
66437;SDS011;54537;47.972;11.662;2023-06-22T10:45:20;15.65;;;5.45;;
66437;SDS011;54537;47.972;11.662;2023-06-22T10:47:46;14.10;;;5.53;;
66437;SDS011;54537;47.972;11.662;2023-06-22T10:50:13;18.45;;;5.72;;
66437;SDS011;54537;47.972;11.662;2023-06-22T10:52:40;12.88;;;5.38;;
66437;SDS011;54537;47.972;11.662;2023-06-22T10:55:07;14.82;;;5.45;;
66437;SDS011;54537;47.972;11.662;2023-06-22T10:57:36;13.35;;;5.78;;
66437;SDS011;54537;47.972;11.662;2023-06-22T11:00:04;18.95;;;5.60;;
66437;SDS011;54537;47.972;11.662;2023-06-22T11:02:33;16.50;;;5.82;;
66437;SDS011;54537;47.972;11.662;2023-06-22T11:04:59;16.55;;;5.72;;
66437;SDS011;54537;47.972;11.662;2023-06-22T11:07:26;19.85;;;6.03;;
66437;SDS011;54537;47.972;11.662;2023-06-22T11:09:53;16.00;;;5.82;;
66437;SDS011;54537;47.972;11.662;2023-06-22T11:12:20;14.65;;;5.78;;
66437;SDS011;54537;47.972;11.662;2023-06-22T11:14:48;17.23;;;5.85;;
66437;SDS011;54537;47.972;11.662;2023-06-22T11:17:16;15.52;;;5.38;;
66437;SDS011;54537;47.972;11.662;2023-06-22T11:19:43;14.98;;;5.53;;
66437;SDS011;54537;47.972;11.662;2023-06-22T11:22:09;15.52;;;5.43;;
66437;SDS011;54537;47.972;11.662;2023-06-22T11:24:36;14.88;;;5.68;;
66437;SDS011;54537;47.972;11.662;2023-06-22T11:27:02;15.48;;;5.38;;
66437;SDS011;54537;47.972;11.662;2023-06-22T11:29:29;19.23;;;6.18;;
66437;SDS011;54537;47.972;11.662;2023-06-22T11:31:57;20.20;;;5.45;;
66437;SDS011;54537;47.972;11.662;2023-06-22T11:34:23;12.73;;;5.32;;
66437;SDS011;54537;47.972;11.662;2023-06-22T11:36:50;20.67;;;5.70;;
66437;SDS011;54537;47.972;11.662;2023-06-22T11:39:16;17.15;;;6.18;;
66437;SDS011;54537;47.972;11.662;2023-06-22T11:41:43;17.25;;;5.57;;
66437;SDS011;54537;47.972;11.662;2023-06-22T11:44:09;16.48;;;5.32;;
66437;SDS011;54537;47.972;11.662;2023-06-22T11:46:36;15.98;;;5.60;;
66437;SDS011;54537;47.972;11.662;2023-06-22T11:49:04;16.77;;;5.35;;
66437;SDS011;54537;47.972;11.662;2023-06-22T11:51:30;16.48;;;5.95;;
66437;SDS011;54537;47.972;11.662;2023-06-22T11:53:57;15.70;;;5.60;;
66437;SDS011;54537;47.972;11.662;2023-06-22T11:56:24;16.45;;;5.70;;
66437;SDS011;54537;47.972;11.662;2023-06-22T11:58:50;18.83;;;5.38;;
66437;SDS011;54537;47.972;11.662;2023-06-22T12:01:17;15.13;;;5.07;;
66437;SDS011;54537;47.972;11.662;2023-06-22T12:03:43;16.75;;;5.40;;
66437;SDS011;54537;47.972;11.662;2023-06-22T12:06:11;18.73;;;5.53;;
66437;SDS011;54537;47.972;11.662;2023-06-22T12:08:37;14.93;;;5.82;;
66437;SDS011;54537;47.972;11.662;2023-06-22T12:11:04;15.23;;;6.03;;
66437;SDS011;54537;47.972;11.662;2023-06-22T12:13:30;18.33;;;5.95;;
66437;SDS011;54537;47.972;11.662;2023-06-22T12:15:57;21.25;;;5.85;;
66437;SDS011;54537;47.972;11.662;2023-06-22T12:18:23;16.00;;;5.43;;
66437;SDS011;54537;47.972;11.662;2023-06-22T12:20:50;18.25;;;5.25;;
66437;SDS011;54537;47.972;11.662;2023-06-22T12:23:18;16.65;;;5.40;;
66437;SDS011;54537;47.972;11.662;2023-06-22T12:25:44;18.30;;;5.70;;
66437;SDS011;54537;47.972;11.662;2023-06-22T12:28:11;21.92;;;6.35;;
66437;SDS011;54537;47.972;11.662;2023-06-22T12:30:37;17.23;;;5.53;;
66437;SDS011;54537;47.972;11.662;2023-06-22T12:33:04;22.60;;;5.38;;
66437;SDS011;54537;47.972;11.662;2023-06-22T12:35:30;15.75;;;5.60;;
66437;SDS011;54537;47.972;11.662;2023-06-22T12:37:57;20.83;;;5.72;;
66437;SDS011;54537;47.972;11.662;2023-06-22T12:40:25;20.67;;;6.03;;
66437;SDS011;54537;47.972;11.662;2023-06-22T12:42:51;27.45;;;6.28;;
66437;SDS011;54537;47.972;11.662;2023-06-22T12:45:18;14.23;;;4.95;;
66437;SDS011;54537;47.972;11.662;2023-06-22T12:47:46;17.15;;;5.90;;
66437;SDS011;54537;47.972;11.662;2023-06-22T12:50:15;19.95;;;5.40;;
66437;SDS011;54537;47.972;11.662;2023-06-22T12:52:41;17.08;;;5.53;;
66437;SDS011;54537;47.972;11.662;2023-06-22T12:55:08;17.30;;;5.47;;
66437;SDS011;54537;47.972;11.662;2023-06-22T12:57:36;18.75;;;5.90;;
66437;SDS011;54537;47.972;11.662;2023-06-22T13:00:03;18.08;;;5.60;;
66437;SDS011;54537;47.972;11.662;2023-06-22T13:02:32;22.67;;;5.82;;
66437;SDS011;54537;47.972;11.662;2023-06-22T13:04:59;20.85;;;5.95;;
66437;SDS011;54537;47.972;11.662;2023-06-22T13:07:25;16.02;;;5.60;;
66437;SDS011;54537;47.972;11.662;2023-06-22T13:09:52;20.65;;;6.10;;
66437;SDS011;54537;47.972;11.662;2023-06-22T13:12:19;17.65;;;5.63;;
66437;SDS011;54537;47.972;11.662;2023-06-22T13:14:47;18.48;;;5.45;;
66437;SDS011;54537;47.972;11.662;2023-06-22T13:17:14;23.45;;;5.70;;
66437;SDS011;54537;47.972;11.662;2023-06-22T13:19:40;17.60;;;5.43;;
66437;SDS011;54537;47.972;11.662;2023-06-22T13:22:24;18.55;;;5.15;;
66437;SDS011;54537;47.972;11.662;2023-06-22T13:24:52;20.35;;;5.80;;
66437;SDS011;54537;47.972;11.662;2023-06-22T13:27:18;19.63;;;5.75;;
66437;SDS011;54537;47.972;11.662;2023-06-22T13:29:46;21.77;;;5.78;;
66437;SDS011;54537;47.972;11.662;2023-06-22T13:32:13;21.65;;;5.82;;
66437;SDS011;54537;47.972;11.662;2023-06-22T13:34:39;18.42;;;5.40;;
66437;SDS011;54537;47.972;11.662;2023-06-22T13:37:06;19.23;;;5.40;;
66437;SDS011;54537;47.972;11.662;2023-06-22T13:39:32;21.90;;;6.22;;
66437;SDS011;54537;47.972;11.662;2023-06-22T13:41:59;15.98;;;5.43;;
66437;SDS011;54537;47.972;11.662;2023-06-22T13:44:25;13.30;;;5.18;;
66437;SDS011;54537;47.972;11.662;2023-06-22T13:46:55;21.02;;;5.80;;
66437;SDS011;54537;47.972;11.662;2023-06-22T13:49:21;16.25;;;5.35;;
66437;SDS011;54537;47.972;11.662;2023-06-22T13:51:48;21.67;;;5.82;;
66437;SDS011;54537;47.972;11.662;2023-06-22T13:54:15;20.05;;;5.63;;
66437;SDS011;54537;47.972;11.662;2023-06-22T13:56:42;16.35;;;5.72;;
66437;SDS011;54537;47.972;11.662;2023-06-22T13:59:09;18.98;;;5.22;;
66437;SDS011;54537;47.972;11.662;2023-06-22T14:01:35;15.45;;;5.63;;
66437;SDS011;54537;47.972;11.662;2023-06-22T14:04:05;16.92;;;5.53;;
66437;SDS011;54537;47.972;11.662;2023-06-22T14:06:31;15.18;;;5.30;;
66437;SDS011;54537;47.972;11.662;2023-06-22T14:08:58;18.48;;;5.25;;
66437;SDS011;54537;47.972;11.662;2023-06-22T14:11:24;18.90;;;5.40;;
66437;SDS011;54537;47.972;11.662;2023-06-22T14:13:51;20.55;;;5.45;;
66437;SDS011;54537;47.972;11.662;2023-06-22T14:16:18;17.60;;;5.53;;
66437;SDS011;54537;47.972;11.662;2023-06-22T14:18:44;19.98;;;6.00;;
66437;SDS011;54537;47.972;11.662;2023-06-22T14:21:12;16.58;;;5.45;;